Time;durP1;ratioP1;P1;durP2;ratioP2;P2;SDS_P1;SDS_P2;PMS_P1;PMS_P2;Temp;Humidity;BMP_temperature;BMP_pressure;BME280_temperature;BME280_humidity;BME280_pressure;Samples;Min_cycle;Max_cycle;Signal;HPM_P1;HPM_P2
2022/08/14 00:04:58;;;;;;;4.20;2.40;;;21.80;99.90;;;;;;10434903;28;20527;-88
2022/08/14 00:10:02;;;;;;;3.97;2.78;;;21.60;99.90;;;;;;10428571;28;20070;-87
2022/08/14 00:15:33;;;;;;;3.38;2.83;;;21.40;99.90;;;;;;10446657;28;20056;-88
2022/08/14 00:20:45;;;;;;;3.13;2.50;;;21.30;99.90;;;;;;10447569;28;20049;-88
2022/08/14 00:25:51;;;;;;;6.90;2.78;;;21.60;99.90;;;;;;10426350;28;20093;-88
2022/08/14 00:30:59;;;;;;;3.67;2.30;;;21.00;99.90;;;;;;10458873;28;20049;-87
2022/08/14 00:36:03;;;;;;;5.88;2.60;;;21.30;99.90;;;;;;10463175;28;20129;-87
2022/08/14 00:41:30;;;;;;;5.32;2.25;;;21.30;99.90;;;;;;10450064;28;20049;-88
2022/08/14 00:46:36;;;;;;;5.13;2.10;;;21.40;99.90;;;;;;10428929;28;20048;-88
2022/08/14 00:51:38;;;;;;;5.20;2.53;;;21.70;99.90;;;;;;10444637;28;20498;-88
2022/08/14 00:56:41;;;;;;;5.65;2.70;;;21.30;99.90;;;;;;10449115;28;20048;-88
2022/08/14 01:01:44;;;;;;;4.65;2.28;;;21.80;99.90;;;;;;10454162;28;20659;-88
2022/08/14 01:06:50;;;;;;;2.70;2.17;;;21.80;99.90;;;;;;10440713;28;20110;-88
2022/08/14 01:11:57;;;;;;;5.28;2.60;;;21.30;99.90;;;;;;10456691;28;20660;-88
2022/08/14 01:17:04;;;;;;;3.22;2.28;;;21.30;99.90;;;;;;10429555;28;20061;-88
2022/08/14 01:22:10;;;;;;;4.32;2.70;;;21.60;99.90;;;;;;10448880;28;20060;-88
2022/08/14 01:27:17;;;;;;;2.72;2.38;;;21.30;99.90;;;;;;10450959;28;20119;-88
2022/08/14 01:32:20;;;;;;;4.27;2.63;;;21.80;99.90;;;;;;10456159;28;20051;-88
2022/08/14 01:37:24;;;;;;;3.10;2.33;;;21.20;99.90;;;;;;10453008;28;20049;-88
2022/08/14 01:42:28;;;;;;;3.75;2.83;;;21.50;99.90;;;;;;10451469;28;20454;-88
2022/08/14 01:47:33;;;;;;;4.90;2.90;;;21.20;99.90;;;;;;10433572;28;20392;-88
2022/08/14 01:52:38;;;;;;;4.20;2.58;;;21.50;99.90;;;;;;10451240;28;20049;-88
2022/08/14 01:58:00;;;;;;;3.00;2.40;;;21.20;99.90;;;;;;10449027;28;20059;-88
2022/08/14 02:03:29;;;;;;;3.55;2.92;;;21.00;99.90;;;;;;10431454;28;20475;-89
2022/08/14 02:08:31;;;;;;;4.15;2.55;;;21.10;99.90;;;;;;10450266;28;20055;-88
2022/08/14 02:13:36;;;;;;;5.68;3.15;;;21.50;99.90;;;;;;10442583;28;20089;-88
2022/08/14 02:18:38;;;;;;;3.65;2.40;;;21.20;99.90;;;;;;10449248;28;20120;-88
2022/08/14 02:23:41;;;;;;;5.68;2.45;;;20.90;99.90;;;;;;10451081;28;20057;-88
2022/08/14 02:28:46;;;;;;;4.20;2.42;;;20.80;99.90;;;;;;10446616;28;20068;-88
2022/08/14 02:34:24;;;;;;;;;;;20.90;99.90;;;;;;10470630;28;20048;-88
2022/08/14 02:39:28;;;;;;;;;;;20.60;99.90;;;;;;10441356;28;19967;-88
2022/08/14 02:44:30;;;;;;;10.63;2.67;;;20.40;99.90;;;;;;10448214;28;19921;-88
2022/08/14 02:49:40;;;;;;;3.47;2.60;;;20.70;99.90;;;;;;10448182;28;20498;-88
2022/08/14 02:54:44;;;;;;;6.28;2.80;;;20.30;99.90;;;;;;10456548;28;20132;-88
2022/08/14 02:59:48;;;;;;;5.15;2.90;;;20.20;99.90;;;;;;10453716;28;20118;-88
2022/08/14 03:04:53;;;;;;;5.10;3.28;;;20.00;99.90;;;;;;10449299;28;20148;-88
2022/08/14 03:09:55;;;;;;;4.82;3.42;;;20.10;99.90;;;;;;10443752;28;20083;-88
2022/08/14 03:15:17;;;;;;;6.15;2.83;;;20.40;99.90;;;;;;10429351;28;20402;-88
2022/08/14 03:20:21;;;;;;;4.53;3.47;;;20.00;99.90;;;;;;10443145;28;20048;-88
2022/08/14 03:25:24;;;;;;;6.25;3.95;;;20.20;99.90;;;;;;10456753;28;20507;-88
2022/08/14 03:30:26;;;;;;;4.28;3.50;;;19.80;99.90;;;;;;10464389;28;20037;-88
2022/08/14 03:35:42;;;;;;;5.80;3.25;;;19.80;99.90;;;;;;10460256;28;20064;-88
2022/08/14 03:41:05;;;;;;;8.65;4.10;;;19.50;99.90;;;;;;10458292;28;20051;-88
2022/08/14 03:46:09;;;;;;;4.93;3.13;;;19.80;99.90;;;;;;10446979;28;20052;-88
2022/08/14 03:51:32;;;;;;;5.75;3.60;;;19.70;99.90;;;;;;10450929;28;20119;-88
2022/08/14 03:56:43;;;;;;;4.40;3.30;;;19.60;99.90;;;;;;10440953;28;20049;-88
2022/08/14 04:01:48;;;;;;;3.95;2.88;;;19.60;99.90;;;;;;10426996;28;20048;-88
2022/08/14 04:07:02;;;;;;;5.82;4.03;;;19.70;99.90;;;;;;10444125;28;20289;-88
2022/08/14 04:12:04;;;;;;;5.82;4.35;;;19.80;99.90;;;;;;10461897;28;20567;-86
2022/08/14 04:17:10;;;;;;;7.03;4.00;;;19.60;99.90;;;;;;10446015;28;20080;-87
2022/08/14 04:22:13;;;;;;;4.88;3.75;;;19.60;99.90;;;;;;10446705;28;20132;-87
2022/08/14 04:27:17;;;;;;;7.10;4.00;;;19.60;99.90;;;;;;10459404;28;20044;-87
2022/08/14 04:32:22;;;;;;;9.55;3.60;;;19.70;99.90;;;;;;10428521;28;20151;-87
2022/08/14 04:43:38;;;;;;;6.20;3.70;;;19.60;99.90;;;;;;10442802;28;20076;-87
2022/08/14 04:48:40;;;;;;;6.47;3.92;;;19.80;99.90;;;;;;10431408;28;20474;-87
2022/08/14 04:53:53;;;;;;;6.25;3.92;;;20.00;99.90;;;;;;10463523;28;20053;-87
2022/08/14 04:58:59;;;;;;;8.48;4.10;;;19.70;99.90;;;;;;10445493;28;20059;-87
2022/08/14 05:04:03;;;;;;;6.43;4.13;;;19.70;99.90;;;;;;10463388;28;20109;-87
2022/08/14 05:09:07;;;;;;;8.90;4.30;;;19.80;99.90;;;;;;10428427;28;20999;-87
2022/08/14 05:14:17;;;;;;;9.00;4.72;;;20.90;99.90;;;;;;10452944;28;20055;-87
2022/08/14 05:19:39;;;;;;;10.57;4.53;;;19.80;99.90;;;;;;10465411;28;20048;-88
2022/08/14 05:25:03;;;;;;;5.60;4.22;;;20.10;99.90;;;;;;10448250;28;20055;-87
2022/08/14 05:30:06;;;;;;;5.85;4.45;;;20.10;99.90;;;;;;10434446;28;20614;-87
2022/08/14 05:35:10;;;;;;;5.25;4.13;;;20.20;99.90;;;;;;10431137;28;20121;-87
2022/08/14 05:40:15;;;;;;;7.20;4.40;;;20.30;99.90;;;;;;10449955;28;20067;-87
2022/08/14 05:45:19;;;;;;;6.78;4.30;;;20.20;99.90;;;;;;10458717;28;20041;-86
2022/08/14 05:50:21;;;;;;;6.53;4.10;;;20.50;99.90;;;;;;10432843;28;20051;-87
2022/08/14 05:55:24;;;;;;;8.88;4.28;;;20.50;99.90;;;;;;10462930;28;20084;-87
2022/08/14 06:00:29;;;;;;;8.52;4.28;;;20.80;99.90;;;;;;10463856;28;20488;-87
2022/08/14 06:05:40;;;;;;;7.50;4.10;;;20.70;99.90;;;;;;10443522;28;20059;-86
2022/08/14 06:10:43;;;;;;;5.47;4.03;;;20.70;99.90;;;;;;10449711;28;21153;-86
2022/08/14 06:15:46;;;;;;;11.13;4.15;;;21.10;99.90;;;;;;10436491;28;20506;-87
2022/08/14 06:20:48;;;;;;;5.68;4.00;;;21.10;99.90;;;;;;10448010;28;20064;-87
2022/08/14 06:25:50;;;;;;;5.72;4.32;;;21.20;99.90;;;;;;10438286;28;20044;-87
2022/08/14 06:30:54;;;;;;;6.30;4.35;;;21.40;99.90;;;;;;10439482;28;20131;-86
2022/08/14 06:35:57;;;;;;;5.40;3.75;;;21.80;99.90;;;;;;10458444;28;20576;-88
2022/08/14 06:40:59;;;;;;;8.07;4.45;;;21.80;99.90;;;;;;10425390;28;20079;-87
2022/08/14 06:46:02;;;;;;;5.22;4.18;;;22.10;99.90;;;;;;10460751;28;20049;-88
2022/08/14 06:51:04;;;;;;;6.13;4.05;;;22.10;99.90;;;;;;10467878;28;20076;-88
2022/08/14 06:56:06;;;;;;;6.85;3.50;;;22.20;99.90;;;;;;10444778;28;20075;-90
2022/08/14 07:06:29;;;;;;;6.20;3.20;;;23.10;99.90;;;;;;10409352;28;20069;-89
2022/08/14 07:11:48;;;;;;;7.63;3.75;;;24.00;99.90;;;;;;10418495;28;20064;-89
2022/08/14 07:16:51;;;;;;;6.60;4.50;;;22.80;99.90;;;;;;10436219;28;20053;-87
2022/08/14 07:21:53;;;;;;;5.45;3.70;;;23.10;99.90;;;;;;10419611;28;20056;-87
2022/08/14 07:26:55;;;;;;;7.85;3.97;;;23.20;99.90;;;;;;10418951;28;20132;-86
2022/08/14 07:31:56;;;;;;;6.50;3.63;;;23.50;99.90;;;;;;10414363;28;20041;-87
2022/08/14 07:36:58;;;;;;;6.03;3.92;;;23.70;99.90;;;;;;10426014;28;20045;-87
2022/08/14 07:42:02;;;;;;;5.22;3.95;;;23.80;99.90;;;;;;10403291;28;20056;-87
2022/08/14 07:47:04;;;;;;;6.35;4.00;;;24.00;99.90;;;;;;10416226;28;20444;-88
2022/08/14 07:52:06;;;;;;;7.82;3.60;;;24.20;99.90;;;;;;10405837;28;20110;-88
2022/08/14 07:57:08;;;;;;;4.55;3.75;;;24.30;99.90;;;;;;10406352;28;20045;-88
2022/08/14 08:02:17;;;;;;;6.85;3.40;;;24.30;99.90;;;;;;10419944;28;20073;-88
2022/08/14 08:07:29;;;;;;;5.68;3.65;;;24.50;99.90;;;;;;10446722;28;20040;-88
2022/08/14 08:12:33;;;;;;;4.65;3.58;;;24.60;99.90;;;;;;10455686;28;20045;-89
2022/08/14 08:17:41;;;;;;;6.10;3.50;;;24.80;99.90;;;;;;10454506;28;20127;-88
2022/08/14 08:23:03;;;;;;;4.57;3.65;;;25.00;99.90;;;;;;10446312;28;20056;-88
2022/08/14 08:28:26;;;;;;;5.50;3.63;;;25.60;99.90;;;;;;10451338;28;20056;-88
2022/08/14 08:33:34;;;;;;;7.07;4.30;;;25.10;99.90;;;;;;10417133;28;20044;-89
2022/08/14 08:38:38;;;;;;;5.57;3.05;;;25.70;99.90;;;;;;10422135;28;20048;-89
2022/08/14 08:44:03;;;;;;;4.70;3.58;;;25.40;99.90;;;;;;10445985;28;20426;-89
2022/08/14 08:49:06;;;;;;;11.05;3.65;;;25.60;99.90;;;;;;10430640;28;20641;-89
2022/08/14 08:54:13;;;;;;;4.50;3.30;;;26.00;99.90;;;;;;10439080;28;20143;-89
2022/08/14 08:59:26;;;;;;;4.13;3.35;;;26.30;99.90;;;;;;10439021;28;20049;-90
2022/08/14 09:04:40;;;;;;;3.47;2.88;;;26.10;99.90;;;;;;10419382;28;20488;-90
2022/08/14 09:09:55;;;;;;;5.22;3.45;;;26.30;99.90;;;;;;10445483;28;20114;-90
2022/08/14 09:15:05;;;;;;;3.00;2.70;;;27.00;99.90;;;;;;10423063;28;20494;-90
2022/08/14 09:20:13;;;;;;;5.22;3.05;;;26.60;99.90;;;;;;10431381;28;20045;-88
2022/08/14 09:25:31;;;;;;;3.40;2.45;;;26.70;99.90;;;;;;10435066;28;20063;-90
2022/08/14 09:30:55;;;;;;;4.50;3.03;;;27.40;99.90;;;;;;10452947;28;20388;-89
2022/08/14 09:36:16;;;;;;;4.68;3.00;;;27.30;99.90;;;;;;10403630;28;20110;-91
2022/08/14 09:41:59;;;;;;;6.43;3.22;;;27.10;99.90;;;;;;10431644;28;20076;-90
2022/08/14 09:47:47;;;;;;;3.55;2.85;;;27.40;99.90;;;;;;10442624;28;20041;-89
2022/08/14 09:52:57;;;;;;;2.67;2.47;;;27.70;99.90;;;;;;10430767;28;20045;-89
2022/08/14 09:58:15;;;;;;;4.22;2.55;;;27.80;99.90;;;;;;10445493;28;20067;-87
2022/08/14 10:03:30;;;;;;;6.25;3.10;;;27.90;99.90;;;;;;10422718;28;20114;-89
2022/08/14 10:08:53;;;;;;;4.05;3.00;;;28.10;99.80;;;;;;10430191;28;20056;-91
2022/08/14 10:14:15;;;;;;;5.63;2.47;;;28.70;99.60;;;;;;10407472;28;20064;-91
2022/08/14 10:19:47;;;;;;;4.20;2.13;;;28.60;98.70;;;;;;10412670;28;20101;-92
2022/08/14 10:24:49;;;;;;;5.30;2.40;;;28.70;97.60;;;;;;10447767;28;20041;-91
2022/08/14 10:30:00;;;;;;;3.50;2.30;;;29.10;97.00;;;;;;10439290;28;20579;-88
2022/08/14 10:35:08;;;;;;;2.45;2.10;;;29.20;95.70;;;;;;10425482;28;20076;-88
2022/08/14 10:40:28;;;;;;;4.43;1.67;;;29.40;94.70;;;;;;10431876;28;20060;-88
2022/08/14 10:45:53;;;;;;;2.25;1.90;;;30.00;93.50;;;;;;10448093;28;20083;-88
2022/08/14 10:51:24;;;;;;;2.45;1.50;;;30.30;91.60;;;;;;10447836;28;20079;-88
2022/08/14 10:56:31;;;;;;;6.00;1.40;;;30.70;90.70;;;;;;10433445;28;20051;-88
2022/08/14 11:01:38;;;;;;;1.63;1.20;;;31.30;90.10;;;;;;10431561;28;20052;-88
2022/08/14 11:06:54;;;;;;;2.30;1.80;;;30.70;85.40;;;;;;10456450;28;20108;-88
2022/08/14 11:11:56;;;;;;;1.35;1.25;;;30.90;86.40;;;;;;10428660;28;20106;-88
2022/08/14 11:17:18;;;;;;;2.40;1.90;;;31.00;84.50;;;;;;10440260;28;20051;-88
2022/08/14 11:22:26;;;;;;;1.83;1.50;;;31.70;85.60;;;;;;10437246;28;20471;-88
2022/08/14 11:27:52;;;;;;;1.67;1.20;;;31.80;82.70;;;;;;10458122;28;20077;-88
2022/08/14 11:32:57;;;;;;;1.58;1.40;;;31.80;80.00;;;;;;10453120;28;20049;-88
2022/08/14 11:38:04;;;;;;;2.28;1.10;;;32.20;77.10;;;;;;10433037;28;20052;-89
2022/08/14 11:43:07;;;;;;;1.23;1.13;;;32.00;77.90;;;;;;10434488;28;20049;-89
2022/08/14 11:48:17;;;;;;;2.10;1.05;;;31.70;76.50;;;;;;10421192;28;20054;-88
2022/08/14 11:53:40;;;;;;;9.52;1.63;;;32.10;76.80;;;;;;10430094;28;20047;-88
2022/08/14 11:58:51;;;;;;;1.38;1.27;;;32.40;76.20;;;;;;10410716;28;20658;-88
2022/08/14 12:03:57;;;;;;;1.55;1.10;;;32.80;71.50;;;;;;10352781;28;20474;-88
2022/08/14 12:09:04;;;;;;;1.88;1.33;;;32.60;74.10;;;;;;10396937;28;20126;-88
2022/08/14 12:14:16;;;;;;;2.35;1.20;;;33.00;74.70;;;;;;10395914;28;23277;-89
2022/08/14 12:19:48;;;;;;;1.85;1.25;;;33.40;73.80;;;;;;10413025;28;20372;-88
2022/08/14 12:24:54;;;;;;;5.50;1.10;;;33.40;73.10;;;;;;10400747;28;20128;-89
2022/08/14 12:29:56;;;;;;;1.27;0.80;;;33.30;70.80;;;;;;10413429;28;20109;-88
2022/08/14 12:34:58;;;;;;;2.88;1.30;;;34.50;70.90;;;;;;10403890;28;20080;-89
2022/08/14 12:40:10;;;;;;;1.13;0.90;;;33.10;70.10;;;;;;10422555;28;20475;-88
2022/08/14 12:45:12;;;;;;;3.45;1.00;;;33.10;67.50;;;;;;10411311;28;20049;-88
2022/08/14 12:50:18;;;;;;;2.55;1.00;;;33.50;69.50;;;;;;10413374;28;20107;-88
2022/08/14 12:55:21;;;;;;;4.03;0.80;;;33.60;68.30;;;;;;10409974;28;20095;-89
2022/08/14 13:00:24;;;;;;;1.42;0.50;;;32.60;64.80;;;;;;10423409;28;20555;-88
2022/08/14 13:05:30;;;;;;;2.25;0.90;;;32.50;64.20;;;;;;10409219;28;20064;-89
2022/08/14 13:10:34;;;;;;;1.42;0.80;;;32.60;66.40;;;;;;10412535;28;20044;-88
2022/08/14 13:15:53;;;;;;;1.20;0.70;;;33.20;66.10;;;;;;10411605;28;20054;-89
2022/08/14 13:21:00;;;;;;;2.80;0.80;;;33.30;64.90;;;;;;10404373;28;20419;-89
2022/08/14 13:26:03;;;;;;;2.15;0.70;;;33.70;63.90;;;;;;10390610;28;20053;-89
2022/08/14 13:31:08;;;;;;;1.83;0.90;;;33.70;63.70;;;;;;10371043;28;20055;-89
2022/08/14 13:36:12;;;;;;;1.25;0.80;;;33.90;63.30;;;;;;10389625;28;20045;-89
2022/08/14 13:41:36;;;;;;;3.28;0.80;;;34.10;62.80;;;;;;10402806;28;20056;-89
2022/08/14 13:46:38;;;;;;;1.88;0.85;;;34.60;63.10;;;;;;10420852;28;20433;-89
2022/08/14 13:51:49;;;;;;;2.70;0.73;;;34.40;63.60;;;;;;10415860;28;20085;-89
2022/08/14 13:56:55;;;;;;;1.48;0.88;;;34.40;61.10;;;;;;10416028;28;20122;-89
2022/08/14 14:02:03;;;;;;;1.65;0.60;;;34.90;62.70;;;;;;10445555;28;20047;-89
2022/08/14 14:07:12;;;;;;;2.08;0.70;;;34.80;62.20;;;;;;10446415;28;20545;-89
2022/08/14 14:12:16;;;;;;;1.20;0.80;;;34.90;62.30;;;;;;10448017;28;21113;-89
2022/08/14 14:17:39;;;;;;;1.35;1.00;;;35.20;67.80;;;;;;10452545;28;20480;-87
2022/08/14 14:22:47;;;;;;;5.65;1.02;;;35.60;76.70;;;;;;10439427;28;20048;-87
2022/08/14 14:28:04;;;;;;;1.05;0.70;;;35.90;76.10;;;;;;10449849;28;20045;-88
2022/08/14 14:33:10;;;;;;;2.00;0.90;;;36.10;75.00;;;;;;10448260;28;20049;-88
2022/08/14 14:38:33;;;;;;;1.90;0.90;;;35.60;74.20;;;;;;10435984;28;20070;-89
2022/08/14 14:43:43;;;;;;;3.70;0.80;;;35.60;74.30;;;;;;10438258;28;20044;-89
2022/08/14 14:48:46;;;;;;;1.60;1.13;;;35.70;73.50;;;;;;10459795;28;20055;-89
2022/08/14 14:53:56;;;;;;;1.10;0.90;;;35.60;74.00;;;;;;10435918;28;20061;-89
2022/08/14 14:58:59;;;;;;;2.67;0.97;;;35.10;73.10;;;;;;10438364;28;20114;-89
2022/08/14 15:04:02;;;;;;;3.10;1.08;;;35.30;73.70;;;;;;10431472;28;20288;-89
2022/08/14 15:09:08;;;;;;;2.33;1.10;;;35.50;72.90;;;;;;10445542;28;20041;-89
2022/08/14 15:14:21;;;;;;;2.88;1.10;;;36.00;71.70;;;;;;10433009;28;20495;-88
2022/08/14 15:19:44;;;;;;;1.42;1.10;;;35.90;73.10;;;;;;10433795;28;20365;-89
2022/08/14 15:24:57;;;;;;;3.38;1.10;;;36.20;72.20;;;;;;10419784;28;20124;-89
2022/08/14 15:29:59;;;;;;;1.85;0.93;;;36.50;71.40;;;;;;10434190;28;20406;-90
2022/08/14 15:35:03;;;;;;;1.48;1.13;;;36.50;71.90;;;;;;10427246;28;20059;-90
2022/08/14 15:40:11;;;;;;;2.45;1.10;;;36.20;71.70;;;;;;10433544;28;20052;-88
2022/08/14 15:45:23;;;;;;;2.95;1.13;;;36.20;71.90;;;;;;10431480;28;20051;-89
2022/08/14 15:50:25;;;;;;;1.42;0.93;;;36.20;71.00;;;;;;10425758;28;20058;-89
2022/08/14 15:55:29;;;;;;;1.35;0.90;;;35.50;72.30;;;;;;10430366;28;20560;-89
2022/08/14 16:05:54;;;;;;;2.13;0.95;;;35.90;72.00;;;;;;10458272;28;20049;-89
2022/08/14 16:10:58;;;;;;;;;;;36.00;70.50;;;;;;10427840;28;20061;-89
2022/08/14 16:16:00;;;;;;;0.90;0.80;;;35.70;69.10;;;;;;10433143;28;20342;-89
2022/08/14 16:21:24;;;;;;;2.90;0.95;;;36.00;69.10;;;;;;10429982;28;20049;-89
2022/08/14 16:26:27;;;;;;;1.00;0.90;;;35.60;69.60;;;;;;10420594;28;20140;-89
2022/08/14 16:31:38;;;;;;;1.30;0.88;;;35.00;69.60;;;;;;10453075;28;20055;-89
2022/08/14 16:36:44;;;;;;;0.98;0.80;;;35.20;70.30;;;;;;10442105;28;20048;-88
2022/08/14 16:41:52;;;;;;;1.00;0.90;;;35.30;70.50;;;;;;10452007;28;20044;-88
2022/08/14 16:46:55;;;;;;;2.53;0.83;;;35.20;70.10;;;;;;10439902;28;20049;-88
2022/08/14 16:52:00;;;;;;;2.07;1.10;;;35.10;70.00;;;;;;10456069;28;20415;-88
2022/08/14 16:57:21;;;;;;;2.78;1.08;;;35.30;69.40;;;;;;10454123;28;20769;-88
2022/08/14 17:02:37;;;;;;;1.52;1.08;;;35.00;69.70;;;;;;10444054;28;20041;-88
2022/08/14 17:07:40;;;;;;;2.70;1.35;;;34.70;69.80;;;;;;10428617;28;20071;-88
2022/08/14 17:12:47;;;;;;;1.80;0.95;;;34.60;69.60;;;;;;10448159;28;20397;-88
2022/08/14 17:17:51;;;;;;;1.88;1.20;;;34.40;70.30;;;;;;10455075;28;20109;-88
2022/08/14 17:22:59;;;;;;;1.50;1.00;;;34.00;70.70;;;;;;10433393;28;20081;-88
2022/08/14 17:28:17;;;;;;;2.78;1.17;;;33.50;71.60;;;;;;10437262;28;20049;-88
2022/08/14 17:33:39;;;;;;;4.47;1.13;;;33.20;71.90;;;;;;10447918;28;20529;-86
2022/08/14 17:39:05;;;;;;;1.63;1.00;;;32.90;72.20;;;;;;10460894;28;20045;-87
2022/08/14 17:44:27;;;;;;;3.42;1.02;;;32.60;72.20;;;;;;10443029;28;20071;-86
2022/08/14 17:49:47;;;;;;;3.15;1.30;;;32.30;72.80;;;;;;10451382;28;20131;-86
2022/08/14 17:54:53;;;;;;;6.40;1.80;;;32.00;73.40;;;;;;10455298;28;20053;-86
2022/08/14 18:00:04;;;;;;;17.15;1.27;;;31.80;73.70;;;;;;10432417;28;20044;-86
2022/08/14 18:05:08;;;;;;;3.05;1.35;;;31.60;74.80;;;;;;10450692;28;20053;-86
2022/08/14 18:10:10;;;;;;;2.80;1.63;;;31.50;75.20;;;;;;10467955;28;20446;-86
2022/08/14 18:15:34;;;;;;;7.25;2.15;;;31.10;76.10;;;;;;10450017;28;20052;-86
2022/08/14 18:20:38;;;;;;;5.38;1.60;;;30.70;77.70;;;;;;10447631;28;20031;-86
2022/08/14 18:26:06;;;;;;;6.95;2.50;;;30.40;78.40;;;;;;10458006;28;20041;-88
2022/08/14 18:31:30;;;;;;;5.32;2.80;;;30.10;79.00;;;;;;10470996;28;20502;-85
2022/08/14 18:36:57;;;;;;;6.05;3.60;;;29.80;80.00;;;;;;10455104;28;20653;-85
2022/08/14 18:42:18;;;;;;;5.82;3.22;;;29.60;81.10;;;;;;10476571;28;20395;-85
2022/08/14 18:47:25;;;;;;;6.65;3.67;;;29.20;81.90;;;;;;10466599;28;20065;-85
2022/08/14 18:52:33;;;;;;;4.32;3.00;;;29.00;83.20;;;;;;10444965;28;20036;-85
2022/08/14 18:57:53;;;;;;;7.38;3.03;;;28.80;84.70;;;;;;10464106;28;20123;-86
2022/08/14 19:03:00;;;;;;;4.70;2.60;;;28.70;85.90;;;;;;10471755;28;20048;-86
2022/08/14 19:08:17;;;;;;;4.53;2.47;;;28.40;85.70;;;;;;10435834;28;20061;-85
2022/08/14 19:13:28;;;;;;;2.92;1.80;;;28.20;85.70;;;;;;10465892;28;20367;-85
2022/08/14 19:18:52;;;;;;;2.95;1.50;;;28.00;85.20;;;;;;10465878;28;20049;-86
2022/08/14 19:24:03;;;;;;;3.97;1.77;;;27.90;85.40;;;;;;10451175;28;20454;-86
2022/08/14 19:29:29;;;;;;;1.77;1.63;;;27.70;85.70;;;;;;10452472;28;20054;-86
2022/08/14 19:34:44;;;;;;;2.63;1.52;;;27.60;86.40;;;;;;10452406;28;20372;-86
2022/08/14 19:39:55;;;;;;;2.38;1.50;;;27.50;86.50;;;;;;10413890;28;20040;-86
2022/08/14 19:44:57;;;;;;;4.60;2.13;;;27.40;86.70;;;;;;10451329;28;20060;-85
2022/08/14 19:49:59;;;;;;;3.85;1.38;;;27.40;87.60;;;;;;10455727;28;20060;-84
2022/08/14 19:55:21;;;;;;;4.43;1.60;;;28.10;88.40;;;;;;10449862;28;20112;-85
2022/08/14 20:00:37;;;;;;;5.50;1.65;;;27.00;88.30;;;;;;10416353;28;20040;-89
2022/08/14 20:06:02;;;;;;;2.00;1.52;;;27.00;89.20;;;;;;10300501;28;20804;-89
2022/08/14 20:11:27;;;;;;;2.28;1.70;;;27.10;89.90;;;;;;10370888;28;20040;-89
2022/08/14 20:16:57;;;;;;;5.45;1.92;;;26.80;89.90;;;;;;10306312;28;20099;-88
2022/08/14 20:22:09;;;;;;;4.45;1.92;;;26.50;90.30;;;;;;10366816;28;20344;-88
2022/08/14 20:27:32;;;;;;;2.85;2.10;;;26.60;90.80;;;;;;10357411;28;20044;-89
2022/08/14 20:32:48;;;;;;;5.68;1.98;;;26.40;90.90;;;;;;10293455;28;20514;-89
2022/08/14 20:38:15;;;;;;;2.58;2.05;;;26.50;90.90;;;;;;10184774;28;20058;-89
2022/08/14 20:49:04;;;;;;;3.22;2.05;;;26.20;91.20;;;;;;10463727;28;20128;-91
2022/08/14 20:54:21;;;;;;;2.53;1.35;;;26.00;91.50;;;;;;10448255;28;20045;-91
2022/08/14 20:59:51;;;;;;;4.72;1.63;;;26.60;91.90;;;;;;10431165;28;20049;-92
2022/08/14 21:05:07;;;;;;;4.20;1.70;;;25.60;91.70;;;;;;10405549;28;20065;-91
2022/08/14 21:10:28;;;;;;;3.22;1.90;;;25.50;91.70;;;;;;10461980;28;20045;-91
2022/08/14 21:15:45;;;;;;;3.30;1.63;;;26.20;92.10;;;;;;10444264;28;20123;-91
2022/08/14 21:21:06;;;;;;;2.35;1.67;;;25.70;92.10;;;;;;10419765;28;20126;-91
2022/08/14 21:26:11;;;;;;;3.53;1.80;;;25.40;92.40;;;;;;10442014;28;20127;-91
2022/08/14 21:31:14;;;;;;;4.17;1.93;;;25.00;93.00;;;;;;10340713;28;20045;-91
2022/08/14 21:36:23;;;;;;;2.80;1.52;;;25.00;93.70;;;;;;10392934;28;20077;-91
2022/08/14 21:41:32;;;;;;;3.78;1.65;;;24.70;93.10;;;;;;10439574;28;20037;-91
2022/08/14 21:46:51;;;;;;;3.70;1.77;;;24.80;93.50;;;;;;10400021;28;20049;-91
2022/08/14 21:52:01;;;;;;;2.35;1.30;;;24.60;93.20;;;;;;10421871;28;20048;-91
2022/08/14 21:57:24;;;;;;;4.40;1.75;;;24.60;93.90;;;;;;10427218;28;20122;-91
2022/08/14 22:02:51;;;;;;;1.98;1.30;;;25.20;94.60;;;;;;10407247;28;20076;-91
2022/08/14 22:07:56;;;;;;;2.03;1.40;;;24.50;94.20;;;;;;10419598;28;20153;-92
2022/08/14 22:12:58;;;;;;;3.35;1.85;;;24.60;94.60;;;;;;10443083;28;20060;-91
2022/08/14 22:18:03;;;;;;;3.22;1.67;;;24.10;94.60;;;;;;10435095;28;20045;-91
2022/08/14 22:23:08;;;;;;;2.55;1.67;;;24.40;95.10;;;;;;10432337;28;20057;-91
2022/08/14 22:28:16;;;;;;;2.80;1.73;;;24.00;95.30;;;;;;10435116;28;20102;-91
2022/08/14 22:33:19;;;;;;;2.80;1.60;;;24.40;95.80;;;;;;10431001;28;20049;-91
2022/08/14 22:38:21;;;;;;;3.72;1.95;;;24.00;95.80;;;;;;10435737;28;20075;-90
2022/08/14 22:43:39;;;;;;;2.78;1.80;;;24.60;96.50;;;;;;10439926;28;20040;-91
2022/08/14 22:48:44;;;;;;;2.47;1.80;;;24.50;96.10;;;;;;10424843;28;20341;-91
2022/08/14 22:53:50;;;;;;;2.75;1.77;;;24.20;96.10;;;;;;10415143;28;20041;-91
2022/08/14 22:58:56;;;;;;;5.60;1.88;;;24.00;96.40;;;;;;10373149;28;20049;-91
2022/08/14 23:03:58;;;;;;;4.57;1.90;;;24.40;96.40;;;;;;10411158;28;20106;-91
2022/08/14 23:09:05;;;;;;;3.80;2.00;;;24.50;96.90;;;;;;10388724;28;20040;-92
2022/08/14 23:14:28;;;;;;;3.78;2.35;;;24.10;96.70;;;;;;10433074;28;20139;-91
2022/08/14 23:19:39;;;;;;;2.38;2.17;;;24.20;97.50;;;;;;10323979;28;20068;-92
2022/08/14 23:24:43;;;;;;;4.20;2.08;;;23.60;97.90;;;;;;10228408;28;20439;-92
2022/08/14 23:29:49;;;;;;;2.92;1.50;;;23.90;98.90;;;;;;10315642;28;20123;-91
2022/08/14 23:34:54;;;;;;;4.22;1.67;;;24.20;98.70;;;;;;10394654;28;20098;-91
2022/08/14 23:39:58;;;;;;;2.25;1.50;;;23.60;98.80;;;;;;10432203;28;20132;-91
2022/08/14 23:45:00;;;;;;;2.42;1.77;;;23.50;98.90;;;;;;10426693;28;20083;-91
2022/08/14 23:50:04;;;;;;;4.18;1.90;;;24.20;99.60;;;;;;10456979;28;20485;-91
2022/08/14 23:55:08;;;;;;;5.38;1.45;;;23.50;99.70;;;;;;10432066;28;20045;-91
